sensor_id;sensor_type;location;lat;lon;timestamp;P1;durP1;ratioP1;P2;durP2;ratioP2
34741;SDS011;20968;42.696;23.360;2023-12-20T00:02:22;282.23;;;144.50;;
34741;SDS011;20968;42.696;23.360;2023-12-20T00:04:48;284.80;;;142.88;;
34741;SDS011;20968;42.696;23.360;2023-12-20T00:07:13;253.02;;;128.48;;
34741;SDS011;20968;42.696;23.360;2023-12-20T00:09:39;264.40;;;139.30;;
34741;SDS011;20968;42.696;23.360;2023-12-20T00:12:04;258.23;;;131.00;;
34741;SDS011;20968;42.696;23.360;2023-12-20T00:14:30;264.63;;;135.88;;
34741;SDS011;20968;42.696;23.360;2023-12-20T00:16:56;290.30;;;151.85;;
34741;SDS011;20968;42.696;23.360;2023-12-20T00:19:21;327.83;;;176.70;;
34741;SDS011;20968;42.696;23.360;2023-12-20T00:21:46;336.42;;;183.95;;
34741;SDS011;20968;42.696;23.360;2023-12-20T00:24:12;347.67;;;180.85;;
34741;SDS011;20968;42.696;23.360;2023-12-20T00:26:37;325.42;;;175.35;;
34741;SDS011;20968;42.696;23.360;2023-12-20T00:29:02;329.35;;;176.23;;
34741;SDS011;20968;42.696;23.360;2023-12-20T00:31:28;326.30;;;170.15;;
34741;SDS011;20968;42.696;23.360;2023-12-20T00:33:53;323.08;;;181.10;;
34741;SDS011;20968;42.696;23.360;2023-12-20T00:36:19;311.83;;;167.20;;
34741;SDS011;20968;42.696;23.360;2023-12-20T00:38:45;371.27;;;182.40;;
34741;SDS011;20968;42.696;23.360;2023-12-20T00:41:10;329.20;;;165.18;;
34741;SDS011;20968;42.696;23.360;2023-12-20T00:43:36;302.90;;;150.18;;
34741;SDS011;20968;42.696;23.360;2023-12-20T00:46:01;324.52;;;161.70;;
34741;SDS011;20968;42.696;23.360;2023-12-20T00:48:27;325.48;;;156.35;;
34741;SDS011;20968;42.696;23.360;2023-12-20T00:50:52;302.50;;;148.57;;
34741;SDS011;20968;42.696;23.360;2023-12-20T00:53:18;305.20;;;150.68;;
34741;SDS011;20968;42.696;23.360;2023-12-20T00:55:43;308.73;;;151.25;;
34741;SDS011;20968;42.696;23.360;2023-12-20T00:58:10;305.90;;;150.65;;
34741;SDS011;20968;42.696;23.360;2023-12-20T01:00:35;294.45;;;150.57;;
34741;SDS011;20968;42.696;23.360;2023-12-20T01:03:00;289.42;;;146.57;;
34741;SDS011;20968;42.696;23.360;2023-12-20T01:05:26;294.13;;;142.90;;
34741;SDS011;20968;42.696;23.360;2023-12-20T01:07:51;292.63;;;142.32;;
34741;SDS011;20968;42.696;23.360;2023-12-20T01:10:17;292.55;;;138.27;;
34741;SDS011;20968;42.696;23.360;2023-12-20T01:12:43;265.83;;;140.77;;
34741;SDS011;20968;42.696;23.360;2023-12-20T01:15:08;288.52;;;143.73;;
34741;SDS011;20968;42.696;23.360;2023-12-20T01:17:34;264.05;;;131.18;;
34741;SDS011;20968;42.696;23.360;2023-12-20T01:19:59;452.23;;;219.57;;
34741;SDS011;20968;42.696;23.360;2023-12-20T01:22:25;306.67;;;164.40;;
34741;SDS011;20968;42.696;23.360;2023-12-20T01:24:51;275.45;;;144.25;;
34741;SDS011;20968;42.696;23.360;2023-12-20T01:27:16;264.48;;;140.48;;
34741;SDS011;20968;42.696;23.360;2023-12-20T01:29:41;276.40;;;146.73;;
34741;SDS011;20968;42.696;23.360;2023-12-20T01:32:07;270.05;;;138.85;;
34741;SDS011;20968;42.696;23.360;2023-12-20T01:34:32;274.65;;;140.18;;
34741;SDS011;20968;42.696;23.360;2023-12-20T01:36:57;266.45;;;136.82;;
34741;SDS011;20968;42.696;23.360;2023-12-20T01:39:23;248.30;;;135.88;;
34741;SDS011;20968;42.696;23.360;2023-12-20T01:41:49;273.50;;;137.63;;
34741;SDS011;20968;42.696;23.360;2023-12-20T01:44:14;260.05;;;133.25;;
34741;SDS011;20968;42.696;23.360;2023-12-20T01:46:39;248.93;;;143.88;;
34741;SDS011;20968;42.696;23.360;2023-12-20T01:49:06;249.48;;;127.85;;
34741;SDS011;20968;42.696;23.360;2023-12-20T01:51:31;259.77;;;128.55;;
34741;SDS011;20968;42.696;23.360;2023-12-20T01:53:58;262.25;;;133.82;;
34741;SDS011;20968;42.696;23.360;2023-12-20T01:56:25;243.73;;;117.55;;
34741;SDS011;20968;42.696;23.360;2023-12-20T01:58:52;265.98;;;141.48;;
34741;SDS011;20968;42.696;23.360;2023-12-20T02:01:18;239.80;;;138.88;;
34741;SDS011;20968;42.696;23.360;2023-12-20T02:03:44;238.32;;;127.63;;
34741;SDS011;20968;42.696;23.360;2023-12-20T02:06:10;270.73;;;129.68;;
34741;SDS011;20968;42.696;23.360;2023-12-20T02:08:36;257.70;;;123.47;;
34741;SDS011;20968;42.696;23.360;2023-12-20T02:11:01;236.25;;;121.38;;
34741;SDS011;20968;42.696;23.360;2023-12-20T02:13:27;239.77;;;115.97;;
34741;SDS011;20968;42.696;23.360;2023-12-20T02:15:53;246.50;;;122.38;;
34741;SDS011;20968;42.696;23.360;2023-12-20T02:18:19;241.73;;;121.07;;
34741;SDS011;20968;42.696;23.360;2023-12-20T02:20:45;248.55;;;119.35;;
34741;SDS011;20968;42.696;23.360;2023-12-20T02:23:10;272.73;;;124.53;;
34741;SDS011;20968;42.696;23.360;2023-12-20T02:25:35;227.40;;;109.18;;
34741;SDS011;20968;42.696;23.360;2023-12-20T02:28:02;258.63;;;119.35;;
34741;SDS011;20968;42.696;23.360;2023-12-20T02:30:28;207.20;;;108.97;;
34741;SDS011;20968;42.696;23.360;2023-12-20T02:32:54;201.85;;;100.10;;
34741;SDS011;20968;42.696;23.360;2023-12-20T02:35:19;203.07;;;105.45;;
34741;SDS011;20968;42.696;23.360;2023-12-20T02:37:45;198.20;;;104.40;;
34741;SDS011;20968;42.696;23.360;2023-12-20T02:40:10;190.30;;;102.88;;
34741;SDS011;20968;42.696;23.360;2023-12-20T02:42:36;202.55;;;98.15;;
34741;SDS011;20968;42.696;23.360;2023-12-20T02:45:02;191.57;;;104.07;;
34741;SDS011;20968;42.696;23.360;2023-12-20T02:47:27;228.23;;;107.30;;
34741;SDS011;20968;42.696;23.360;2023-12-20T02:49:54;245.23;;;106.22;;
34741;SDS011;20968;42.696;23.360;2023-12-20T02:52:20;207.57;;;107.63;;
34741;SDS011;20968;42.696;23.360;2023-12-20T02:54:45;214.00;;;105.55;;
34741;SDS011;20968;42.696;23.360;2023-12-20T02:57:11;260.13;;;116.50;;
34741;SDS011;20968;42.696;23.360;2023-12-20T02:59:37;216.00;;;102.13;;
34741;SDS011;20968;42.696;23.360;2023-12-20T03:02:02;229.45;;;125.00;;
34741;SDS011;20968;42.696;23.360;2023-12-20T03:04:28;214.52;;;99.18;;
34741;SDS011;20968;42.696;23.360;2023-12-20T03:06:53;183.85;;;90.07;;
34741;SDS011;20968;42.696;23.360;2023-12-20T03:09:18;194.38;;;89.55;;
34741;SDS011;20968;42.696;23.360;2023-12-20T03:11:44;177.27;;;91.22;;
34741;SDS011;20968;42.696;23.360;2023-12-20T03:14:09;173.52;;;88.07;;
34741;SDS011;20968;42.696;23.360;2023-12-20T03:16:35;200.70;;;99.63;;
34741;SDS011;20968;42.696;23.360;2023-12-20T03:19:00;195.80;;;94.65;;
34741;SDS011;20968;42.696;23.360;2023-12-20T03:21:25;177.02;;;89.22;;
34741;SDS011;20968;42.696;23.360;2023-12-20T03:23:51;165.55;;;87.70;;
34741;SDS011;20968;42.696;23.360;2023-12-20T03:26:16;157.05;;;85.00;;
34741;SDS011;20968;42.696;23.360;2023-12-20T03:28:42;162.00;;;84.47;;
34741;SDS011;20968;42.696;23.360;2023-12-20T03:31:07;155.00;;;75.13;;
34741;SDS011;20968;42.696;23.360;2023-12-20T03:33:34;153.40;;;80.50;;
34741;SDS011;20968;42.696;23.360;2023-12-20T03:36:00;184.00;;;93.68;;
34741;SDS011;20968;42.696;23.360;2023-12-20T03:38:25;196.68;;;96.47;;
34741;SDS011;20968;42.696;23.360;2023-12-20T03:40:50;204.00;;;106.97;;
34741;SDS011;20968;42.696;23.360;2023-12-20T03:43:16;179.38;;;95.45;;
34741;SDS011;20968;42.696;23.360;2023-12-20T03:45:42;184.93;;;86.95;;
34741;SDS011;20968;42.696;23.360;2023-12-20T03:48:07;187.18;;;96.15;;
34741;SDS011;20968;42.696;23.360;2023-12-20T03:50:33;188.60;;;101.38;;
34741;SDS011;20968;42.696;23.360;2023-12-20T03:52:59;191.50;;;102.35;;
34741;SDS011;20968;42.696;23.360;2023-12-20T03:55:25;185.90;;;90.85;;
34741;SDS011;20968;42.696;23.360;2023-12-20T03:57:50;176.38;;;85.80;;
34741;SDS011;20968;42.696;23.360;2023-12-20T04:00:15;183.82;;;92.97;;
34741;SDS011;20968;42.696;23.360;2023-12-20T04:02:41;174.13;;;88.55;;
34741;SDS011;20968;42.696;23.360;2023-12-20T04:05:07;199.73;;;90.70;;
34741;SDS011;20968;42.696;23.360;2023-12-20T04:07:33;161.93;;;87.28;;
34741;SDS011;20968;42.696;23.360;2023-12-20T04:10:00;155.85;;;86.68;;
34741;SDS011;20968;42.696;23.360;2023-12-20T04:12:26;158.85;;;87.78;;
34741;SDS011;20968;42.696;23.360;2023-12-20T04:14:53;148.13;;;81.93;;
34741;SDS011;20968;42.696;23.360;2023-12-20T04:17:18;152.80;;;84.30;;
34741;SDS011;20968;42.696;23.360;2023-12-20T04:19:44;181.65;;;90.38;;
34741;SDS011;20968;42.696;23.360;2023-12-20T04:22:09;173.25;;;88.80;;
34741;SDS011;20968;42.696;23.360;2023-12-20T04:24:34;164.27;;;78.97;;
34741;SDS011;20968;42.696;23.360;2023-12-20T04:27:00;137.70;;;80.90;;
34741;SDS011;20968;42.696;23.360;2023-12-20T04:29:26;164.40;;;91.40;;
34741;SDS011;20968;42.696;23.360;2023-12-20T04:31:51;163.57;;;82.65;;
34741;SDS011;20968;42.696;23.360;2023-12-20T04:34:17;190.60;;;92.65;;
34741;SDS011;20968;42.696;23.360;2023-12-20T04:36:43;192.80;;;110.85;;
34741;SDS011;20968;42.696;23.360;2023-12-20T04:39:09;186.27;;;97.55;;
34741;SDS011;20968;42.696;23.360;2023-12-20T04:41:35;201.65;;;106.68;;
34741;SDS011;20968;42.696;23.360;2023-12-20T04:44:00;196.05;;;101.35;;
34741;SDS011;20968;42.696;23.360;2023-12-20T04:46:27;256.08;;;119.85;;
34741;SDS011;20968;42.696;23.360;2023-12-20T04:48:52;309.20;;;127.88;;
34741;SDS011;20968;42.696;23.360;2023-12-20T04:51:17;224.25;;;115.90;;
34741;SDS011;20968;42.696;23.360;2023-12-20T04:53:43;242.60;;;119.35;;
34741;SDS011;20968;42.696;23.360;2023-12-20T04:56:08;252.50;;;122.32;;
34741;SDS011;20968;42.696;23.360;2023-12-20T04:58:34;214.77;;;108.22;;
34741;SDS011;20968;42.696;23.360;2023-12-20T05:00:59;213.13;;;103.57;;
34741;SDS011;20968;42.696;23.360;2023-12-20T05:03:25;199.40;;;105.53;;
34741;SDS011;20968;42.696;23.360;2023-12-20T05:05:50;201.88;;;99.40;;
34741;SDS011;20968;42.696;23.360;2023-12-20T05:08:15;193.35;;;98.50;;
34741;SDS011;20968;42.696;23.360;2023-12-20T05:10:41;217.82;;;113.85;;
34741;SDS011;20968;42.696;23.360;2023-12-20T05:13:06;153.85;;;84.32;;
34741;SDS011;20968;42.696;23.360;2023-12-20T05:15:32;156.65;;;80.72;;
34741;SDS011;20968;42.696;23.360;2023-12-20T05:17:58;170.90;;;85.38;;
34741;SDS011;20968;42.696;23.360;2023-12-20T05:20:23;179.23;;;93.68;;
34741;SDS011;20968;42.696;23.360;2023-12-20T05:22:49;183.52;;;87.28;;
34741;SDS011;20968;42.696;23.360;2023-12-20T05:25:14;152.13;;;79.15;;
34741;SDS011;20968;42.696;23.360;2023-12-20T05:27:40;154.65;;;88.53;;
34741;SDS011;20968;42.696;23.360;2023-12-20T05:30:05;187.02;;;94.68;;
34741;SDS011;20968;42.696;23.360;2023-12-20T05:32:31;175.55;;;79.10;;
34741;SDS011;20968;42.696;23.360;2023-12-20T05:34:56;165.15;;;83.32;;
34741;SDS011;20968;42.696;23.360;2023-12-20T05:37:22;156.82;;;75.68;;
34741;SDS011;20968;42.696;23.360;2023-12-20T05:39:47;140.98;;;74.97;;
34741;SDS011;20968;42.696;23.360;2023-12-20T05:42:13;166.73;;;84.88;;
34741;SDS011;20968;42.696;23.360;2023-12-20T05:44:38;129.85;;;66.82;;
34741;SDS011;20968;42.696;23.360;2023-12-20T05:47:04;128.25;;;71.35;;
34741;SDS011;20968;42.696;23.360;2023-12-20T05:49:29;135.18;;;69.72;;
34741;SDS011;20968;42.696;23.360;2023-12-20T05:51:55;186.23;;;87.45;;
34741;SDS011;20968;42.696;23.360;2023-12-20T05:54:20;163.25;;;79.82;;
34741;SDS011;20968;42.696;23.360;2023-12-20T05:56:46;173.35;;;90.95;;
34741;SDS011;20968;42.696;23.360;2023-12-20T05:59:12;167.35;;;93.53;;
34741;SDS011;20968;42.696;23.360;2023-12-20T06:01:37;170.75;;;95.40;;
34741;SDS011;20968;42.696;23.360;2023-12-20T06:04:03;183.20;;;94.28;;
34741;SDS011;20968;42.696;23.360;2023-12-20T06:06:29;166.75;;;89.20;;
34741;SDS011;20968;42.696;23.360;2023-12-20T06:08:55;154.30;;;72.70;;
34741;SDS011;20968;42.696;23.360;2023-12-20T06:11:21;151.98;;;63.40;;
34741;SDS011;20968;42.696;23.360;2023-12-20T06:13:46;110.65;;;71.63;;
34741;SDS011;20968;42.696;23.360;2023-12-20T06:16:11;109.13;;;66.25;;
34741;SDS011;20968;42.696;23.360;2023-12-20T06:18:37;125.15;;;66.38;;
34741;SDS011;20968;42.696;23.360;2023-12-20T06:21:02;131.63;;;77.07;;
34741;SDS011;20968;42.696;23.360;2023-12-20T06:23:28;142.10;;;74.95;;
34741;SDS011;20968;42.696;23.360;2023-12-20T06:25:54;128.93;;;72.68;;
34741;SDS011;20968;42.696;23.360;2023-12-20T06:28:19;154.13;;;93.25;;
34741;SDS011;20968;42.696;23.360;2023-12-20T06:30:44;144.80;;;77.00;;
34741;SDS011;20968;42.696;23.360;2023-12-20T06:33:12;139.30;;;76.75;;
34741;SDS011;20968;42.696;23.360;2023-12-20T06:35:38;179.50;;;90.80;;
34741;SDS011;20968;42.696;23.360;2023-12-20T06:38:03;167.70;;;83.07;;
34741;SDS011;20968;42.696;23.360;2023-12-20T06:40:29;172.30;;;77.68;;
34741;SDS011;20968;42.696;23.360;2023-12-20T06:42:54;158.05;;;80.32;;
34741;SDS011;20968;42.696;23.360;2023-12-20T06:45:20;166.15;;;83.45;;
34741;SDS011;20968;42.696;23.360;2023-12-20T06:47:45;162.88;;;83.13;;
34741;SDS011;20968;42.696;23.360;2023-12-20T06:50:11;152.40;;;77.40;;
34741;SDS011;20968;42.696;23.360;2023-12-20T06:52:36;154.27;;;75.70;;
34741;SDS011;20968;42.696;23.360;2023-12-20T06:55:02;148.77;;;74.80;;
34741;SDS011;20968;42.696;23.360;2023-12-20T06:57:28;144.77;;;72.55;;
34741;SDS011;20968;42.696;23.360;2023-12-20T06:59:54;179.43;;;83.47;;
34741;SDS011;20968;42.696;23.360;2023-12-20T07:02:19;146.48;;;72.03;;
34741;SDS011;20968;42.696;23.360;2023-12-20T07:04:46;150.68;;;76.00;;
34741;SDS011;20968;42.696;23.360;2023-12-20T07:07:11;138.48;;;70.72;;
34741;SDS011;20968;42.696;23.360;2023-12-20T07:09:36;131.57;;;66.32;;
34741;SDS011;20968;42.696;23.360;2023-12-20T07:12:03;138.07;;;73.47;;
34741;SDS011;20968;42.696;23.360;2023-12-20T07:14:29;134.18;;;65.22;;
34741;SDS011;20968;42.696;23.360;2023-12-20T07:16:54;133.95;;;79.40;;
34741;SDS011;20968;42.696;23.360;2023-12-20T07:19:20;130.30;;;69.20;;
34741;SDS011;20968;42.696;23.360;2023-12-20T07:21:45;133.68;;;67.93;;
34741;SDS011;20968;42.696;23.360;2023-12-20T07:24:10;138.00;;;72.15;;
34741;SDS011;20968;42.696;23.360;2023-12-20T07:26:36;142.13;;;69.68;;
34741;SDS011;20968;42.696;23.360;2023-12-20T07:29:03;137.35;;;65.00;;
34741;SDS011;20968;42.696;23.360;2023-12-20T07:31:29;169.20;;;75.28;;
34741;SDS011;20968;42.696;23.360;2023-12-20T07:33:54;143.80;;;69.47;;
34741;SDS011;20968;42.696;23.360;2023-12-20T07:36:20;135.20;;;67.70;;
34741;SDS011;20968;42.696;23.360;2023-12-20T07:38:46;128.98;;;68.43;;
34741;SDS011;20968;42.696;23.360;2023-12-20T07:41:11;131.27;;;69.10;;
34741;SDS011;20968;42.696;23.360;2023-12-20T07:43:37;136.70;;;65.65;;
34741;SDS011;20968;42.696;23.360;2023-12-20T07:46:06;127.43;;;69.13;;
34741;SDS011;20968;42.696;23.360;2023-12-20T07:48:34;133.95;;;65.85;;
34741;SDS011;20968;42.696;23.360;2023-12-20T07:50:59;136.02;;;65.60;;
34741;SDS011;20968;42.696;23.360;2023-12-20T07:53:25;134.77;;;63.75;;
34741;SDS011;20968;42.696;23.360;2023-12-20T07:55:50;136.23;;;69.63;;
34741;SDS011;20968;42.696;23.360;2023-12-20T07:58:17;132.63;;;66.03;;
34741;SDS011;20968;42.696;23.360;2023-12-20T08:00:43;136.93;;;65.63;;
34741;SDS011;20968;42.696;23.360;2023-12-20T08:03:09;127.80;;;60.50;;
34741;SDS011;20968;42.696;23.360;2023-12-20T08:05:34;130.65;;;63.95;;
34741;SDS011;20968;42.696;23.360;2023-12-20T08:08:00;130.60;;;67.93;;
34741;SDS011;20968;42.696;23.360;2023-12-20T08:10:25;136.00;;;61.58;;
34741;SDS011;20968;42.696;23.360;2023-12-20T08:12:50;122.18;;;63.20;;
34741;SDS011;20968;42.696;23.360;2023-12-20T08:15:17;121.55;;;60.42;;
34741;SDS011;20968;42.696;23.360;2023-12-20T08:17:43;144.63;;;66.63;;
34741;SDS011;20968;42.696;23.360;2023-12-20T08:20:08;167.07;;;68.72;;
34741;SDS011;20968;42.696;23.360;2023-12-20T08:22:34;173.13;;;73.88;;
34741;SDS011;20968;42.696;23.360;2023-12-20T08:24:59;150.02;;;72.07;;
34741;SDS011;20968;42.696;23.360;2023-12-20T08:27:24;154.55;;;79.50;;
34741;SDS011;20968;42.696;23.360;2023-12-20T08:29:50;170.40;;;78.13;;
34741;SDS011;20968;42.696;23.360;2023-12-20T08:32:16;172.52;;;84.35;;
34741;SDS011;20968;42.696;23.360;2023-12-20T08:34:41;748.70;;;323.75;;
34741;SDS011;20968;42.696;23.360;2023-12-20T08:37:07;381.75;;;155.85;;
34741;SDS011;20968;42.696;23.360;2023-12-20T08:39:32;202.30;;;90.10;;
34741;SDS011;20968;42.696;23.360;2023-12-20T08:41:58;166.50;;;78.00;;
34741;SDS011;20968;42.696;23.360;2023-12-20T08:44:24;185.48;;;80.88;;
34741;SDS011;20968;42.696;23.360;2023-12-20T08:46:49;189.55;;;79.97;;
34741;SDS011;20968;42.696;23.360;2023-12-20T08:49:15;189.93;;;85.60;;
34741;SDS011;20968;42.696;23.360;2023-12-20T08:51:40;201.43;;;84.47;;
34741;SDS011;20968;42.696;23.360;2023-12-20T08:54:06;201.95;;;88.20;;
34741;SDS011;20968;42.696;23.360;2023-12-20T08:56:33;191.43;;;86.32;;
34741;SDS011;20968;42.696;23.360;2023-12-20T08:58:58;178.73;;;82.30;;
34741;SDS011;20968;42.696;23.360;2023-12-20T09:01:24;181.77;;;75.20;;
34741;SDS011;20968;42.696;23.360;2023-12-20T09:03:51;208.18;;;77.38;;
34741;SDS011;20968;42.696;23.360;2023-12-20T09:06:16;173.25;;;79.28;;
34741;SDS011;20968;42.696;23.360;2023-12-20T09:08:41;174.63;;;75.25;;
34741;SDS011;20968;42.696;23.360;2023-12-20T09:11:07;194.98;;;81.15;;
34741;SDS011;20968;42.696;23.360;2023-12-20T09:13:32;170.93;;;79.50;;
34741;SDS011;20968;42.696;23.360;2023-12-20T09:15:58;168.95;;;72.95;;
34741;SDS011;20968;42.696;23.360;2023-12-20T09:18:23;169.65;;;72.72;;
34741;SDS011;20968;42.696;23.360;2023-12-20T09:20:49;181.45;;;75.32;;
34741;SDS011;20968;42.696;23.360;2023-12-20T09:23:14;190.82;;;80.95;;
34741;SDS011;20968;42.696;23.360;2023-12-20T09:25:40;174.05;;;76.47;;
34741;SDS011;20968;42.696;23.360;2023-12-20T09:28:05;182.68;;;79.15;;
34741;SDS011;20968;42.696;23.360;2023-12-20T09:30:31;174.10;;;77.30;;
34741;SDS011;20968;42.696;23.360;2023-12-20T09:32:56;188.20;;;85.15;;
34741;SDS011;20968;42.696;23.360;2023-12-20T09:35:22;158.98;;;77.80;;
34741;SDS011;20968;42.696;23.360;2023-12-20T09:37:48;164.50;;;65.68;;
34741;SDS011;20968;42.696;23.360;2023-12-20T09:40:13;171.93;;;72.68;;
34741;SDS011;20968;42.696;23.360;2023-12-20T09:42:45;178.68;;;70.60;;
34741;SDS011;20968;42.696;23.360;2023-12-20T09:45:15;182.40;;;78.85;;
34741;SDS011;20968;42.696;23.360;2023-12-20T09:47:46;172.88;;;71.55;;
34741;SDS011;20968;42.696;23.360;2023-12-20T09:50:12;174.95;;;71.70;;
34741;SDS011;20968;42.696;23.360;2023-12-20T09:52:38;188.23;;;77.82;;
34741;SDS011;20968;42.696;23.360;2023-12-20T09:55:05;194.63;;;90.63;;
34741;SDS011;20968;42.696;23.360;2023-12-20T09:57:32;164.63;;;68.05;;
34741;SDS011;20968;42.696;23.360;2023-12-20T09:59:57;180.00;;;74.45;;
34741;SDS011;20968;42.696;23.360;2023-12-20T10:02:24;159.25;;;69.10;;
34741;SDS011;20968;42.696;23.360;2023-12-20T10:04:54;157.90;;;70.82;;
34741;SDS011;20968;42.696;23.360;2023-12-20T10:07:20;184.27;;;72.97;;
34741;SDS011;20968;42.696;23.360;2023-12-20T10:09:47;156.35;;;64.75;;
34741;SDS011;20968;42.696;23.360;2023-12-20T10:12:13;170.98;;;74.18;;
34741;SDS011;20968;42.696;23.360;2023-12-20T10:14:39;165.43;;;72.47;;
34741;SDS011;20968;42.696;23.360;2023-12-20T10:17:05;162.52;;;70.30;;
34741;SDS011;20968;42.696;23.360;2023-12-20T10:19:31;193.52;;;74.72;;
34741;SDS011;20968;42.696;23.360;2023-12-20T10:21:57;189.48;;;75.60;;
34741;SDS011;20968;42.696;23.360;2023-12-20T10:24:24;180.73;;;70.40;;
34741;SDS011;20968;42.696;23.360;2023-12-20T10:27:11;179.93;;;75.68;;
34741;SDS011;20968;42.696;23.360;2023-12-20T10:29:36;188.38;;;71.50;;
34741;SDS011;20968;42.696;23.360;2023-12-20T10:32:21;188.68;;;81.25;;
34741;SDS011;20968;42.696;23.360;2023-12-20T10:34:48;188.88;;;79.00;;
34741;SDS011;20968;42.696;23.360;2023-12-20T10:37:14;172.15;;;78.78;;
34741;SDS011;20968;42.696;23.360;2023-12-20T10:39:39;177.60;;;75.07;;
34741;SDS011;20968;42.696;23.360;2023-12-20T10:42:08;189.80;;;76.80;;
34741;SDS011;20968;42.696;23.360;2023-12-20T10:44:36;182.45;;;79.20;;
34741;SDS011;20968;42.696;23.360;2023-12-20T10:47:01;185.50;;;78.90;;
34741;SDS011;20968;42.696;23.360;2023-12-20T10:49:28;191.32;;;78.78;;
34741;SDS011;20968;42.696;23.360;2023-12-20T10:51:55;189.50;;;79.28;;
34741;SDS011;20968;42.696;23.360;2023-12-20T10:54:24;186.02;;;76.35;;
34741;SDS011;20968;42.696;23.360;2023-12-20T10:56:50;195.88;;;80.93;;
34741;SDS011;20968;42.696;23.360;2023-12-20T10:59:17;197.27;;;78.68;;
34741;SDS011;20968;42.696;23.360;2023-12-20T11:01:45;189.38;;;79.22;;
34741;SDS011;20968;42.696;23.360;2023-12-20T11:04:28;203.32;;;81.70;;
34741;SDS011;20968;42.696;23.360;2023-12-20T11:07:10;180.43;;;79.15;;
34741;SDS011;20968;42.696;23.360;2023-12-20T11:12:58;172.60;;;79.65;;
34741;SDS011;20968;42.696;23.360;2023-12-20T11:15:35;204.00;;;89.97;;
34741;SDS011;20968;42.696;23.360;2023-12-20T11:18:01;205.93;;;90.97;;
34741;SDS011;20968;42.696;23.360;2023-12-20T11:20:35;204.13;;;86.10;;
34741;SDS011;20968;42.696;23.360;2023-12-20T11:23:02;224.98;;;94.78;;
34741;SDS011;20968;42.696;23.360;2023-12-20T11:25:28;200.32;;;93.72;;
34741;SDS011;20968;42.696;23.360;2023-12-20T11:28:07;194.45;;;85.93;;
34741;SDS011;20968;42.696;23.360;2023-12-20T11:30:41;208.82;;;92.53;;
34741;SDS011;20968;42.696;23.360;2023-12-20T11:33:10;199.05;;;86.15;;
34741;SDS011;20968;42.696;23.360;2023-12-20T11:35:35;201.93;;;88.78;;
34741;SDS011;20968;42.696;23.360;2023-12-20T11:38:02;198.02;;;92.80;;
34741;SDS011;20968;42.696;23.360;2023-12-20T11:40:27;194.45;;;84.95;;
34741;SDS011;20968;42.696;23.360;2023-12-20T11:42:53;259.20;;;132.02;;
34741;SDS011;20968;42.696;23.360;2023-12-20T11:45:23;189.55;;;79.82;;
34741;SDS011;20968;42.696;23.360;2023-12-20T11:47:50;191.15;;;77.43;;
34741;SDS011;20968;42.696;23.360;2023-12-20T11:50:20;186.63;;;79.05;;
34741;SDS011;20968;42.696;23.360;2023-12-20T11:52:47;181.90;;;78.13;;
34741;SDS011;20968;42.696;23.360;2023-12-20T11:55:13;210.88;;;97.28;;
34741;SDS011;20968;42.696;23.360;2023-12-20T11:57:38;199.20;;;86.15;;
34741;SDS011;20968;42.696;23.360;2023-12-20T12:00:04;201.70;;;86.70;;
34741;SDS011;20968;42.696;23.360;2023-12-20T12:02:31;201.45;;;84.20;;
34741;SDS011;20968;42.696;23.360;2023-12-20T12:04:57;208.45;;;83.13;;
34741;SDS011;20968;42.696;23.360;2023-12-20T12:07:24;221.18;;;87.78;;
34741;SDS011;20968;42.696;23.360;2023-12-20T12:09:50;217.52;;;93.22;;
34741;SDS011;20968;42.696;23.360;2023-12-20T12:12:17;213.02;;;90.95;;
34741;SDS011;20968;42.696;23.360;2023-12-20T12:14:44;215.52;;;90.85;;
34741;SDS011;20968;42.696;23.360;2023-12-20T12:17:10;215.68;;;92.85;;
34741;SDS011;20968;42.696;23.360;2023-12-20T12:19:37;214.57;;;91.88;;
34741;SDS011;20968;42.696;23.360;2023-12-20T12:22:07;224.27;;;98.97;;
34741;SDS011;20968;42.696;23.360;2023-12-20T12:24:37;218.10;;;97.47;;
34741;SDS011;20968;42.696;23.360;2023-12-20T12:27:05;239.35;;;106.05;;
34741;SDS011;20968;42.696;23.360;2023-12-20T12:29:31;211.93;;;89.10;;
34741;SDS011;20968;42.696;23.360;2023-12-20T12:31:56;231.88;;;91.20;;
34741;SDS011;20968;42.696;23.360;2023-12-20T12:34:23;218.30;;;87.32;;
34741;SDS011;20968;42.696;23.360;2023-12-20T12:36:48;255.30;;;104.38;;
34741;SDS011;20968;42.696;23.360;2023-12-20T12:39:14;238.35;;;93.65;;
34741;SDS011;20968;42.696;23.360;2023-12-20T12:41:40;243.55;;;95.03;;
34741;SDS011;20968;42.696;23.360;2023-12-20T12:44:06;246.23;;;87.97;;
34741;SDS011;20968;42.696;23.360;2023-12-20T12:46:31;234.02;;;94.55;;
34741;SDS011;20968;42.696;23.360;2023-12-20T12:48:57;247.57;;;104.82;;
34741;SDS011;20968;42.696;23.360;2023-12-20T12:51:23;236.10;;;89.22;;
34741;SDS011;20968;42.696;23.360;2023-12-20T12:53:48;209.85;;;83.10;;
34741;SDS011;20968;42.696;23.360;2023-12-20T12:56:14;194.13;;;79.10;;
34741;SDS011;20968;42.696;23.360;2023-12-20T12:58:40;195.13;;;75.25;;
34741;SDS011;20968;42.696;23.360;2023-12-20T13:01:05;178.63;;;74.22;;
34741;SDS011;20968;42.696;23.360;2023-12-20T13:03:31;176.40;;;75.25;;
34741;SDS011;20968;42.696;23.360;2023-12-20T13:05:56;169.07;;;71.15;;
34741;SDS011;20968;42.696;23.360;2023-12-20T13:08:22;166.32;;;72.35;;
34741;SDS011;20968;42.696;23.360;2023-12-20T13:10:47;169.10;;;67.25;;
34741;SDS011;20968;42.696;23.360;2023-12-20T13:13:13;168.52;;;70.45;;
34741;SDS011;20968;42.696;23.360;2023-12-20T13:15:38;173.57;;;69.38;;
34741;SDS011;20968;42.696;23.360;2023-12-20T13:18:04;169.45;;;74.60;;
34741;SDS011;20968;42.696;23.360;2023-12-20T13:20:31;174.43;;;75.90;;
34741;SDS011;20968;42.696;23.360;2023-12-20T13:22:56;175.15;;;77.82;;
34741;SDS011;20968;42.696;23.360;2023-12-20T13:25:22;183.70;;;71.10;;
34741;SDS011;20968;42.696;23.360;2023-12-20T13:27:47;201.25;;;82.43;;
34741;SDS011;20968;42.696;23.360;2023-12-20T13:30:13;219.98;;;89.85;;
34741;SDS011;20968;42.696;23.360;2023-12-20T13:32:38;211.48;;;90.13;;
34741;SDS011;20968;42.696;23.360;2023-12-20T13:35:04;224.57;;;86.05;;
34741;SDS011;20968;42.696;23.360;2023-12-20T13:37:30;201.43;;;89.53;;
34741;SDS011;20968;42.696;23.360;2023-12-20T13:39:57;186.75;;;79.43;;
34741;SDS011;20968;42.696;23.360;2023-12-20T13:42:22;197.82;;;72.15;;
34741;SDS011;20968;42.696;23.360;2023-12-20T13:44:48;189.32;;;79.00;;
34741;SDS011;20968;42.696;23.360;2023-12-20T13:47:13;228.32;;;82.45;;
34741;SDS011;20968;42.696;23.360;2023-12-20T13:49:38;199.88;;;80.45;;
34741;SDS011;20968;42.696;23.360;2023-12-20T13:52:04;182.82;;;71.63;;